sensor_id;sensor_type;location;lat;lon;timestamp;temperature;humidity
62583;DHT22;48641;51.676;5.808;2024-03-29T00:02:12;15.70;48.90
62583;DHT22;48641;51.676;5.808;2024-03-29T00:04:37;15.70;49.00
62583;DHT22;48641;51.676;5.808;2024-03-29T00:07:03;15.70;48.90
62583;DHT22;48641;51.676;5.808;2024-03-29T00:09:29;15.70;48.90
62583;DHT22;48641;51.676;5.808;2024-03-29T00:11:54;15.70;48.90
62583;DHT22;48641;51.676;5.808;2024-03-29T00:14:20;15.70;48.90
62583;DHT22;48641;51.676;5.808;2024-03-29T00:16:45;15.70;48.90
62583;DHT22;48641;51.676;5.808;2024-03-29T00:19:11;15.70;48.90
62583;DHT22;48641;51.676;5.808;2024-03-29T00:21:37;15.70;48.90
62583;DHT22;48641;51.676;5.808;2024-03-29T00:24:02;15.70;48.90
62583;DHT22;48641;51.676;5.808;2024-03-29T00:26:28;15.60;48.90
62583;DHT22;48641;51.676;5.808;2024-03-29T00:28:53;15.70;49.00
62583;DHT22;48641;51.676;5.808;2024-03-29T00:31:20;15.60;49.00
62583;DHT22;48641;51.676;5.808;2024-03-29T00:33:46;15.60;48.90
62583;DHT22;48641;51.676;5.808;2024-03-29T00:36:11;15.60;49.00
62583;DHT22;48641;51.676;5.808;2024-03-29T00:38:37;15.60;49.10
62583;DHT22;48641;51.676;5.808;2024-03-29T00:41:02;15.60;49.20
62583;DHT22;48641;51.676;5.808;2024-03-29T00:43:28;15.60;49.20
62583;DHT22;48641;51.676;5.808;2024-03-29T00:45:53;15.60;49.30
62583;DHT22;48641;51.676;5.808;2024-03-29T00:48:19;15.60;49.20
62583;DHT22;48641;51.676;5.808;2024-03-29T00:50:45;15.60;49.30
62583;DHT22;48641;51.676;5.808;2024-03-29T00:53:11;15.60;49.30
62583;DHT22;48641;51.676;5.808;2024-03-29T00:55:36;15.60;49.20
62583;DHT22;48641;51.676;5.808;2024-03-29T00:58:02;15.60;49.20
62583;DHT22;48641;51.676;5.808;2024-03-29T01:00:28;15.60;49.20
62583;DHT22;48641;51.676;5.808;2024-03-29T01:02:54;15.60;49.20
62583;DHT22;48641;51.676;5.808;2024-03-29T01:05:19;15.60;49.20
62583;DHT22;48641;51.676;5.808;2024-03-29T01:07:45;15.60;49.00
62583;DHT22;48641;51.676;5.808;2024-03-29T01:10:10;15.60;49.20
62583;DHT22;48641;51.676;5.808;2024-03-29T01:12:36;15.50;49.20
62583;DHT22;48641;51.676;5.808;2024-03-29T01:15:02;15.60;49.20
62583;DHT22;48641;51.676;5.808;2024-03-29T01:17:28;15.50;49.10
62583;DHT22;48641;51.676;5.808;2024-03-29T01:19:54;15.60;49.20
62583;DHT22;48641;51.676;5.808;2024-03-29T01:22:20;15.60;49.10
62583;DHT22;48641;51.676;5.808;2024-03-29T01:24:46;15.60;48.90
62583;DHT22;48641;51.676;5.808;2024-03-29T01:27:11;15.60;49.00
62583;DHT22;48641;51.676;5.808;2024-03-29T01:29:37;15.50;49.00
62583;DHT22;48641;51.676;5.808;2024-03-29T01:32:03;15.50;49.10
62583;DHT22;48641;51.676;5.808;2024-03-29T01:34:29;15.50;49.00
62583;DHT22;48641;51.676;5.808;2024-03-29T01:36:54;15.50;49.10
62583;DHT22;48641;51.676;5.808;2024-03-29T01:39:20;15.50;49.10
62583;DHT22;48641;51.676;5.808;2024-03-29T01:41:50;15.50;49.00
62583;DHT22;48641;51.676;5.808;2024-03-29T01:44:15;15.50;49.10
62583;DHT22;48641;51.676;5.808;2024-03-29T01:46:41;15.50;49.20
62583;DHT22;48641;51.676;5.808;2024-03-29T01:49:07;15.40;49.10
62583;DHT22;48641;51.676;5.808;2024-03-29T01:51:37;15.40;49.10
62583;DHT22;48641;51.676;5.808;2024-03-29T01:54:04;15.40;49.10
62583;DHT22;48641;51.676;5.808;2024-03-29T01:56:30;15.40;49.10
62583;DHT22;48641;51.676;5.808;2024-03-29T01:58:57;15.40;49.10
62583;DHT22;48641;51.676;5.808;2024-03-29T02:01:25;15.40;49.00
62583;DHT22;48641;51.676;5.808;2024-03-29T02:03:51;15.40;48.90
62583;DHT22;48641;51.676;5.808;2024-03-29T02:06:18;15.40;49.00
62583;DHT22;48641;51.676;5.808;2024-03-29T02:08:44;15.40;50.00
62583;DHT22;48641;51.676;5.808;2024-03-29T02:11:10;15.40;49.00
62583;DHT22;48641;51.676;5.808;2024-03-29T02:13:35;15.40;48.90
62583;DHT22;48641;51.676;5.808;2024-03-29T02:16:02;15.40;49.00
62583;DHT22;48641;51.676;5.808;2024-03-29T02:18:28;15.40;49.00
62583;DHT22;48641;51.676;5.808;2024-03-29T02:20:53;15.30;48.90
62583;DHT22;48641;51.676;5.808;2024-03-29T02:23:30;15.40;48.90
62583;DHT22;48641;51.676;5.808;2024-03-29T02:25:57;15.40;49.00
62583;DHT22;48641;51.676;5.808;2024-03-29T02:28:24;15.40;49.00
62583;DHT22;48641;51.676;5.808;2024-03-29T02:30:50;15.30;49.10
62583;DHT22;48641;51.676;5.808;2024-03-29T02:33:15;15.40;49.10
62583;DHT22;48641;51.676;5.808;2024-03-29T02:35:41;15.30;49.00
62583;DHT22;48641;51.676;5.808;2024-03-29T02:38:06;15.30;49.00
62583;DHT22;48641;51.676;5.808;2024-03-29T02:40:32;15.30;49.00
62583;DHT22;48641;51.676;5.808;2024-03-29T02:42:58;15.30;49.00
62583;DHT22;48641;51.676;5.808;2024-03-29T02:45:23;15.30;49.00
62583;DHT22;48641;51.676;5.808;2024-03-29T02:47:49;15.30;49.00
62583;DHT22;48641;51.676;5.808;2024-03-29T02:50:15;15.30;49.00
62583;DHT22;48641;51.676;5.808;2024-03-29T02:52:41;15.30;49.00
62583;DHT22;48641;51.676;5.808;2024-03-29T02:55:08;15.30;49.00
62583;DHT22;48641;51.676;5.808;2024-03-29T02:57:34;15.30;49.00
62583;DHT22;48641;51.676;5.808;2024-03-29T03:00:00;15.30;49.10
62583;DHT22;48641;51.676;5.808;2024-03-29T03:02:25;15.30;49.00
62583;DHT22;48641;51.676;5.808;2024-03-29T03:04:51;15.30;49.00
62583;DHT22;48641;51.676;5.808;2024-03-29T03:07:17;15.30;49.00
62583;DHT22;48641;51.676;5.808;2024-03-29T03:10:01;15.30;49.10
62583;DHT22;48641;51.676;5.808;2024-03-29T03:12:45;15.30;49.10
62583;DHT22;48641;51.676;5.808;2024-03-29T03:15:10;15.20;49.00
62583;DHT22;48641;51.676;5.808;2024-03-29T03:17:36;15.30;48.90
62583;DHT22;48641;51.676;5.808;2024-03-29T03:20:02;15.30;48.90
62583;DHT22;48641;51.676;5.808;2024-03-29T03:22:30;15.30;48.80
62583;DHT22;48641;51.676;5.808;2024-03-29T03:24:56;15.20;48.70
62583;DHT22;48641;51.676;5.808;2024-03-29T03:27:21;15.20;48.80
62583;DHT22;48641;51.676;5.808;2024-03-29T03:29:48;15.20;48.90
62583;DHT22;48641;51.676;5.808;2024-03-29T03:32:14;15.20;49.00
62583;DHT22;48641;51.676;5.808;2024-03-29T03:34:40;15.20;49.00
62583;DHT22;48641;51.676;5.808;2024-03-29T03:37:05;15.20;49.10
62583;DHT22;48641;51.676;5.808;2024-03-29T03:39:31;15.20;49.20
62583;DHT22;48641;51.676;5.808;2024-03-29T03:41:56;15.20;49.30
62583;DHT22;48641;51.676;5.808;2024-03-29T03:44:22;15.20;49.40
62583;DHT22;48641;51.676;5.808;2024-03-29T03:46:50;15.20;49.40
62583;DHT22;48641;51.676;5.808;2024-03-29T03:49:16;15.20;49.50
62583;DHT22;48641;51.676;5.808;2024-03-29T03:51:41;15.20;49.60
62583;DHT22;48641;51.676;5.808;2024-03-29T03:54:07;15.20;49.60
62583;DHT22;48641;51.676;5.808;2024-03-29T03:56:33;15.20;49.70
62583;DHT22;48641;51.676;5.808;2024-03-29T03:58:58;15.20;49.80
62583;DHT22;48641;51.676;5.808;2024-03-29T04:01:24;15.20;50.00
62583;DHT22;48641;51.676;5.808;2024-03-29T04:03:49;15.20;50.00
62583;DHT22;48641;51.676;5.808;2024-03-29T04:06:15;15.20;50.10
62583;DHT22;48641;51.676;5.808;2024-03-29T04:08:40;15.10;50.00
62583;DHT22;48641;51.676;5.808;2024-03-29T04:11:06;15.20;50.10
62583;DHT22;48641;51.676;5.808;2024-03-29T04:13:32;15.20;50.20
62583;DHT22;48641;51.676;5.808;2024-03-29T04:16:04;15.20;50.20
62583;DHT22;48641;51.676;5.808;2024-03-29T04:18:30;15.20;50.20
62583;DHT22;48641;51.676;5.808;2024-03-29T04:20:59;15.10;50.20
62583;DHT22;48641;51.676;5.808;2024-03-29T04:23:25;15.20;50.30
62583;DHT22;48641;51.676;5.808;2024-03-29T04:25:55;15.20;50.30
62583;DHT22;48641;51.676;5.808;2024-03-29T04:28:21;15.20;50.30
62583;DHT22;48641;51.676;5.808;2024-03-29T04:30:57;15.20;50.20
62583;DHT22;48641;51.676;5.808;2024-03-29T04:33:23;15.20;50.30
62583;DHT22;48641;51.676;5.808;2024-03-29T04:36:00;15.20;50.30
62583;DHT22;48641;51.676;5.808;2024-03-29T04:38:26;15.20;50.30
62583;DHT22;48641;51.676;5.808;2024-03-29T04:40:54;15.10;50.20
62583;DHT22;48641;51.676;5.808;2024-03-29T04:43:21;15.20;50.20
62583;DHT22;48641;51.676;5.808;2024-03-29T04:45:47;15.20;50.20
62583;DHT22;48641;51.676;5.808;2024-03-29T04:48:14;15.20;50.20
62583;DHT22;48641;51.676;5.808;2024-03-29T04:50:39;15.20;50.20
62583;DHT22;48641;51.676;5.808;2024-03-29T04:53:06;15.20;50.30
62583;DHT22;48641;51.676;5.808;2024-03-29T04:55:32;15.20;50.20
62583;DHT22;48641;51.676;5.808;2024-03-29T04:57:58;15.10;50.20
62583;DHT22;48641;51.676;5.808;2024-03-29T05:00:23;15.10;50.20
62583;DHT22;48641;51.676;5.808;2024-03-29T05:02:49;15.10;50.20
62583;DHT22;48641;51.676;5.808;2024-03-29T05:05:15;15.20;50.20
62583;DHT22;48641;51.676;5.808;2024-03-29T05:07:40;15.20;50.40
62583;DHT22;48641;51.676;5.808;2024-03-29T05:10:06;15.10;50.40
62583;DHT22;48641;51.676;5.808;2024-03-29T05:12:33;15.10;50.40
62583;DHT22;48641;51.676;5.808;2024-03-29T05:14:59;15.10;50.40
62583;DHT22;48641;51.676;5.808;2024-03-29T05:17:24;15.10;50.50
62583;DHT22;48641;51.676;5.808;2024-03-29T05:19:55;15.10;50.50
62583;DHT22;48641;51.676;5.808;2024-03-29T05:22:21;15.10;50.50
62583;DHT22;48641;51.676;5.808;2024-03-29T05:24:47;15.10;50.60
62583;DHT22;48641;51.676;5.808;2024-03-29T05:27:13;15.10;50.60
62583;DHT22;48641;51.676;5.808;2024-03-29T05:29:39;15.10;50.60
62583;DHT22;48641;51.676;5.808;2024-03-29T05:32:06;15.10;50.70
62583;DHT22;48641;51.676;5.808;2024-03-29T05:34:31;15.10;50.80
62583;DHT22;48641;51.676;5.808;2024-03-29T05:36:57;15.10;51.10
62583;DHT22;48641;51.676;5.808;2024-03-29T05:39:23;15.10;51.10
62583;DHT22;48641;51.676;5.808;2024-03-29T05:41:48;15.10;51.20
62583;DHT22;48641;51.676;5.808;2024-03-29T05:44:14;15.10;51.50
62583;DHT22;48641;51.676;5.808;2024-03-29T05:46:40;15.10;51.50
62583;DHT22;48641;51.676;5.808;2024-03-29T05:49:06;15.10;51.70
62583;DHT22;48641;51.676;5.808;2024-03-29T05:51:32;15.10;51.90
62583;DHT22;48641;51.676;5.808;2024-03-29T05:53:59;15.10;51.90
62583;DHT22;48641;51.676;5.808;2024-03-29T05:56:25;15.10;52.10
62583;DHT22;48641;51.676;5.808;2024-03-29T05:58:50;15.10;52.30
62583;DHT22;48641;51.676;5.808;2024-03-29T06:01:16;15.10;52.30
62583;DHT22;48641;51.676;5.808;2024-03-29T06:03:41;15.20;52.40
62583;DHT22;48641;51.676;5.808;2024-03-29T06:06:07;15.10;52.40
62583;DHT22;48641;51.676;5.808;2024-03-29T06:08:32;15.20;52.60
62583;DHT22;48641;51.676;5.808;2024-03-29T06:10:58;15.20;52.60
62583;DHT22;48641;51.676;5.808;2024-03-29T06:13:24;15.20;52.70
62583;DHT22;48641;51.676;5.808;2024-03-29T06:16:13;15.20;52.60
62583;DHT22;48641;51.676;5.808;2024-03-29T06:18:57;15.10;52.50
62583;DHT22;48641;51.676;5.808;2024-03-29T06:21:23;15.10;52.70
62583;DHT22;48641;51.676;5.808;2024-03-29T06:23:48;15.20;52.80
62583;DHT22;48641;51.676;5.808;2024-03-29T06:26:14;15.10;52.80
62583;DHT22;48641;51.676;5.808;2024-03-29T06:28:40;15.10;52.80
62583;DHT22;48641;51.676;5.808;2024-03-29T06:31:05;15.10;53.00
62583;DHT22;48641;51.676;5.808;2024-03-29T06:33:31;15.10;52.90
62583;DHT22;48641;51.676;5.808;2024-03-29T06:35:56;15.10;53.00
62583;DHT22;48641;51.676;5.808;2024-03-29T06:38:22;15.10;53.00
62583;DHT22;48641;51.676;5.808;2024-03-29T06:40:47;15.10;53.00
62583;DHT22;48641;51.676;5.808;2024-03-29T06:43:13;15.10;53.10
62583;DHT22;48641;51.676;5.808;2024-03-29T06:45:42;15.10;53.00
62583;DHT22;48641;51.676;5.808;2024-03-29T06:48:10;15.20;53.10
62583;DHT22;48641;51.676;5.808;2024-03-29T06:50:37;15.10;53.10
62583;DHT22;48641;51.676;5.808;2024-03-29T06:53:03;15.10;53.10
62583;DHT22;48641;51.676;5.808;2024-03-29T06:55:30;15.10;53.20
62583;DHT22;48641;51.676;5.808;2024-03-29T06:57:56;15.20;53.30
62583;DHT22;48641;51.676;5.808;2024-03-29T07:00:22;15.10;53.30
62583;DHT22;48641;51.676;5.808;2024-03-29T07:02:47;15.20;53.40
62583;DHT22;48641;51.676;5.808;2024-03-29T07:05:13;15.20;53.40
62583;DHT22;48641;51.676;5.808;2024-03-29T07:07:38;15.20;53.40
62583;DHT22;48641;51.676;5.808;2024-03-29T07:10:06;15.20;53.40
62583;DHT22;48641;51.676;5.808;2024-03-29T07:12:32;15.20;53.40
62583;DHT22;48641;51.676;5.808;2024-03-29T07:14:57;15.20;53.50
62583;DHT22;48641;51.676;5.808;2024-03-29T07:17:23;15.20;53.50
62583;DHT22;48641;51.676;5.808;2024-03-29T07:19:48;15.20;53.60
62583;DHT22;48641;51.676;5.808;2024-03-29T07:22:14;15.20;53.70
62583;DHT22;48641;51.676;5.808;2024-03-29T07:24:39;15.10;53.50
62583;DHT22;48641;51.676;5.808;2024-03-29T07:27:05;15.10;53.60
62583;DHT22;48641;51.676;5.808;2024-03-29T07:29:31;15.10;53.50
62583;DHT22;48641;51.676;5.808;2024-03-29T07:31:59;15.10;53.60
62583;DHT22;48641;51.676;5.808;2024-03-29T07:34:25;15.10;53.60
62583;DHT22;48641;51.676;5.808;2024-03-29T07:36:51;15.10;53.60
62583;DHT22;48641;51.676;5.808;2024-03-29T07:39:17;15.10;53.60
62583;DHT22;48641;51.676;5.808;2024-03-29T07:41:42;15.10;53.70
62583;DHT22;48641;51.676;5.808;2024-03-29T07:44:08;15.20;54.40
62583;DHT22;48641;51.676;5.808;2024-03-29T07:46:35;15.20;53.60
62583;DHT22;48641;51.676;5.808;2024-03-29T07:49:02;15.10;53.50
62583;DHT22;48641;51.676;5.808;2024-03-29T07:51:28;15.10;53.40
62583;DHT22;48641;51.676;5.808;2024-03-29T07:53:54;15.10;53.40
62583;DHT22;48641;51.676;5.808;2024-03-29T07:56:20;15.10;53.20
62583;DHT22;48641;51.676;5.808;2024-03-29T07:58:50;15.10;53.20
62583;DHT22;48641;51.676;5.808;2024-03-29T08:01:22;15.10;53.10
62583;DHT22;48641;51.676;5.808;2024-03-29T08:03:51;15.10;53.10
62583;DHT22;48641;51.676;5.808;2024-03-29T08:06:18;15.10;53.00
62583;DHT22;48641;51.676;5.808;2024-03-29T08:08:45;15.10;53.00
62583;DHT22;48641;51.676;5.808;2024-03-29T08:11:11;15.10;53.00
62583;DHT22;48641;51.676;5.808;2024-03-29T08:13:38;15.10;53.00
62583;DHT22;48641;51.676;5.808;2024-03-29T08:16:05;15.10;52.90
62583;DHT22;48641;51.676;5.808;2024-03-29T08:18:31;15.10;53.00
62583;DHT22;48641;51.676;5.808;2024-03-29T08:20:57;15.10;53.00
62583;DHT22;48641;51.676;5.808;2024-03-29T08:23:25;15.10;53.00
62583;DHT22;48641;51.676;5.808;2024-03-29T08:25:50;15.10;52.90
62583;DHT22;48641;51.676;5.808;2024-03-29T08:28:17;15.10;52.90
62583;DHT22;48641;51.676;5.808;2024-03-29T08:30:44;15.10;52.90
62583;DHT22;48641;51.676;5.808;2024-03-29T08:33:09;15.10;53.00
62583;DHT22;48641;51.676;5.808;2024-03-29T08:35:35;15.10;53.00
62583;DHT22;48641;51.676;5.808;2024-03-29T08:38:01;15.10;53.00
62583;DHT22;48641;51.676;5.808;2024-03-29T08:40:28;15.10;52.90
62583;DHT22;48641;51.676;5.808;2024-03-29T08:42:55;15.10;53.00
62583;DHT22;48641;51.676;5.808;2024-03-29T08:45:21;15.10;53.00
62583;DHT22;48641;51.676;5.808;2024-03-29T08:47:47;15.10;53.00
62583;DHT22;48641;51.676;5.808;2024-03-29T08:50:13;15.10;52.90
62583;DHT22;48641;51.676;5.808;2024-03-29T08:52:39;15.10;52.80
62583;DHT22;48641;51.676;5.808;2024-03-29T08:55:08;15.10;52.80
62583;DHT22;48641;51.676;5.808;2024-03-29T08:57:34;15.10;53.00
62583;DHT22;48641;51.676;5.808;2024-03-29T09:00:00;15.20;52.90
62583;DHT22;48641;51.676;5.808;2024-03-29T09:02:26;15.20;52.90
62583;DHT22;48641;51.676;5.808;2024-03-29T09:04:52;15.20;52.90
62583;DHT22;48641;51.676;5.808;2024-03-29T09:07:17;15.20;52.90
62583;DHT22;48641;51.676;5.808;2024-03-29T09:09:43;15.20;52.90
62583;DHT22;48641;51.676;5.808;2024-03-29T09:12:09;15.20;52.90
62583;DHT22;48641;51.676;5.808;2024-03-29T09:14:34;15.10;52.90
62583;DHT22;48641;51.676;5.808;2024-03-29T09:17:00;15.20;52.90
62583;DHT22;48641;51.676;5.808;2024-03-29T09:19:27;15.20;52.90
62583;DHT22;48641;51.676;5.808;2024-03-29T09:21:54;15.20;52.90
62583;DHT22;48641;51.676;5.808;2024-03-29T09:24:19;15.20;52.80
62583;DHT22;48641;51.676;5.808;2024-03-29T09:26:49;15.20;52.80
62583;DHT22;48641;51.676;5.808;2024-03-29T09:29:15;15.20;52.80
62583;DHT22;48641;51.676;5.808;2024-03-29T09:31:42;15.20;52.80
62583;DHT22;48641;51.676;5.808;2024-03-29T09:34:07;15.30;52.70
62583;DHT22;48641;51.676;5.808;2024-03-29T09:36:34;15.30;52.60
62583;DHT22;48641;51.676;5.808;2024-03-29T09:39:00;15.30;52.60
62583;DHT22;48641;51.676;5.808;2024-03-29T09:41:26;15.30;52.70
62583;DHT22;48641;51.676;5.808;2024-03-29T09:43:53;15.30;52.80
62583;DHT22;48641;51.676;5.808;2024-03-29T09:46:20;15.30;53.30
62583;DHT22;48641;51.676;5.808;2024-03-29T09:48:47;15.30;52.90
62583;DHT22;48641;51.676;5.808;2024-03-29T09:51:14;15.30;52.90
62583;DHT22;48641;51.676;5.808;2024-03-29T09:53:42;15.30;52.90
62583;DHT22;48641;51.676;5.808;2024-03-29T09:56:08;15.30;52.90
62583;DHT22;48641;51.676;5.808;2024-03-29T09:58:36;15.40;53.00
62583;DHT22;48641;51.676;5.808;2024-03-29T10:01:03;15.30;53.10
62583;DHT22;48641;51.676;5.808;2024-03-29T10:03:30;15.40;53.20
62583;DHT22;48641;51.676;5.808;2024-03-29T10:06:00;15.40;53.30
62583;DHT22;48641;51.676;5.808;2024-03-29T10:08:26;15.50;53.20
62583;DHT22;48641;51.676;5.808;2024-03-29T10:10:52;15.40;53.20
62583;DHT22;48641;51.676;5.808;2024-03-29T10:13:19;15.40;53.40
62583;DHT22;48641;51.676;5.808;2024-03-29T10:15:44;15.40;53.40
62583;DHT22;48641;51.676;5.808;2024-03-29T10:18:12;15.50;53.40
62583;DHT22;48641;51.676;5.808;2024-03-29T10:20:38;15.50;53.50
62583;DHT22;48641;51.676;5.808;2024-03-29T10:23:03;15.50;53.50
62583;DHT22;48641;51.676;5.808;2024-03-29T10:25:32;15.60;53.30
62583;DHT22;48641;51.676;5.808;2024-03-29T10:28:01;15.60;53.40
62583;DHT22;48641;51.676;5.808;2024-03-29T10:30:28;15.60;53.40
62583;DHT22;48641;51.676;5.808;2024-03-29T10:32:57;15.60;53.30
62583;DHT22;48641;51.676;5.808;2024-03-29T10:35:26;15.70;53.50
62583;DHT22;48641;51.676;5.808;2024-03-29T10:37:54;15.70;53.50
62583;DHT22;48641;51.676;5.808;2024-03-29T10:40:21;15.70;53.50
62583;DHT22;48641;51.676;5.808;2024-03-29T10:42:49;15.70;53.50
62583;DHT22;48641;51.676;5.808;2024-03-29T10:45:15;15.80;53.60
62583;DHT22;48641;51.676;5.808;2024-03-29T10:47:43;15.80;53.60
62583;DHT22;48641;51.676;5.808;2024-03-29T10:50:12;15.80;53.50
62583;DHT22;48641;51.676;5.808;2024-03-29T10:52:39;15.80;53.50
62583;DHT22;48641;51.676;5.808;2024-03-29T10:55:08;15.90;53.50
62583;DHT22;48641;51.676;5.808;2024-03-29T10:57:34;15.90;53.50
62583;DHT22;48641;51.676;5.808;2024-03-29T11:04:57;15.90;53.60
62583;DHT22;48641;51.676;5.808;2024-03-29T11:07:24;16.00;53.60
62583;DHT22;48641;51.676;5.808;2024-03-29T11:09:53;16.00;53.50
62583;DHT22;48641;51.676;5.808;2024-03-29T11:12:22;16.00;54.50
62583;DHT22;48641;51.676;5.808;2024-03-29T11:14:58;16.00;53.40
62583;DHT22;48641;51.676;5.808;2024-03-29T11:17:29;16.00;53.60
62583;DHT22;48641;51.676;5.808;2024-03-29T11:19:56;16.00;53.60
62583;DHT22;48641;51.676;5.808;2024-03-29T11:22:23;16.00;53.70
62583;DHT22;48641;51.676;5.808;2024-03-29T11:24:50;16.10;53.90
62583;DHT22;48641;51.676;5.808;2024-03-29T11:27:16;16.10;53.90
62583;DHT22;48641;51.676;5.808;2024-03-29T11:29:42;16.10;54.00
62583;DHT22;48641;51.676;5.808;2024-03-29T11:32:08;16.20;54.20
62583;DHT22;48641;51.676;5.808;2024-03-29T11:34:34;16.20;54.20
62583;DHT22;48641;51.676;5.808;2024-03-29T11:37:07;16.20;54.30
62583;DHT22;48641;51.676;5.808;2024-03-29T11:39:33;16.20;54.20
62583;DHT22;48641;51.676;5.808;2024-03-29T11:42:01;16.20;54.30
62583;DHT22;48641;51.676;5.808;2024-03-29T11:44:27;16.30;54.30
62583;DHT22;48641;51.676;5.808;2024-03-29T11:46:58;16.30;54.20
62583;DHT22;48641;51.676;5.808;2024-03-29T11:49:24;16.30;54.30
62583;DHT22;48641;51.676;5.808;2024-03-29T11:51:50;16.30;54.30
62583;DHT22;48641;51.676;5.808;2024-03-29T11:54:15;16.30;54.30
62583;DHT22;48641;51.676;5.808;2024-03-29T11:56:42;16.30;54.30
62583;DHT22;48641;51.676;5.808;2024-03-29T11:59:08;16.30;54.30
62583;DHT22;48641;51.676;5.808;2024-03-29T12:01:35;16.40;54.30
62583;DHT22;48641;51.676;5.808;2024-03-29T12:04:04;16.40;54.20
62583;DHT22;48641;51.676;5.808;2024-03-29T12:06:30;16.40;54.10
62583;DHT22;48641;51.676;5.808;2024-03-29T12:08:55;16.40;54.10
62583;DHT22;48641;51.676;5.808;2024-03-29T12:11:22;16.50;54.10
62583;DHT22;48641;51.676;5.808;2024-03-29T12:13:48;16.50;54.00
62583;DHT22;48641;51.676;5.808;2024-03-29T12:16:15;16.50;54.00
62583;DHT22;48641;51.676;5.808;2024-03-29T12:18:40;16.50;54.00
62583;DHT22;48641;51.676;5.808;2024-03-29T12:21:06;16.50;53.90
62583;DHT22;48641;51.676;5.808;2024-03-29T12:23:32;16.50;54.00
62583;DHT22;48641;51.676;5.808;2024-03-29T12:25:58;16.50;54.00
62583;DHT22;48641;51.676;5.808;2024-03-29T12:28:25;16.60;54.00
62583;DHT22;48641;51.676;5.808;2024-03-29T12:30:51;16.60;54.10
62583;DHT22;48641;51.676;5.808;2024-03-29T12:33:19;16.60;54.00
62583;DHT22;48641;51.676;5.808;2024-03-29T12:35:48;16.60;53.80
62583;DHT22;48641;51.676;5.808;2024-03-29T12:38:16;16.60;53.80
62583;DHT22;48641;51.676;5.808;2024-03-29T12:40:43;16.60;53.70
62583;DHT22;48641;51.676;5.808;2024-03-29T12:43:10;16.70;53.70
62583;DHT22;48641;51.676;5.808;2024-03-29T12:45:40;16.70;53.70
62583;DHT22;48641;51.676;5.808;2024-03-29T12:48:11;16.70;53.50
62583;DHT22;48641;51.676;5.808;2024-03-29T12:50:40;16.70;53.40
62583;DHT22;48641;51.676;5.808;2024-03-29T12:53:07;16.70;53.30
62583;DHT22;48641;51.676;5.808;2024-03-29T12:55:33;16.70;53.30
62583;DHT22;48641;51.676;5.808;2024-03-29T12:58:04;16.70;53.10
62583;DHT22;48641;51.676;5.808;2024-03-29T13:00:31;16.80;53.20
62583;DHT22;48641;51.676;5.808;2024-03-29T13:02:56;16.80;53.00
62583;DHT22;48641;51.676;5.808;2024-03-29T13:05:22;16.80;53.00
62583;DHT22;48641;51.676;5.808;2024-03-29T13:07:48;16.80;52.90
62583;DHT22;48641;51.676;5.808;2024-03-29T13:10:14;16.80;52.80
62583;DHT22;48641;51.676;5.808;2024-03-29T13:12:48;16.90;52.70
62583;DHT22;48641;51.676;5.808;2024-03-29T13:15:22;16.90;52.60
62583;DHT22;48641;51.676;5.808;2024-03-29T13:17:51;16.90;52.50
62583;DHT22;48641;51.676;5.808;2024-03-29T13:20:17;16.90;53.50
62583;DHT22;48641;51.676;5.808;2024-03-29T13:22:44;16.90;52.40
62583;DHT22;48641;51.676;5.808;2024-03-29T13:25:14;16.90;52.40
62583;DHT22;48641;51.676;5.808;2024-03-29T13:27:41;17.00;52.40
62583;DHT22;48641;51.676;5.808;2024-03-29T13:30:08;17.00;52.20
62583;DHT22;48641;51.676;5.808;2024-03-29T13:32:38;17.00;52.20
62583;DHT22;48641;51.676;5.808;2024-03-29T13:35:08;17.00;53.20
62583;DHT22;48641;51.676;5.808;2024-03-29T13:37:43;17.00;52.10
62583;DHT22;48641;51.676;5.808;2024-03-29T13:40:11;17.00;51.90
62583;DHT22;48641;51.676;5.808;2024-03-29T13:42:37;17.00;51.90
62583;DHT22;48641;51.676;5.808;2024-03-29T13:45:04;17.10;51.90
62583;DHT22;48641;51.676;5.808;2024-03-29T13:47:32;17.10;51.80
62583;DHT22;48641;51.676;5.808;2024-03-29T13:49:57;17.10;51.80
62583;DHT22;48641;51.676;5.808;2024-03-29T13:52:23;17.10;51.80
62583;DHT22;48641;51.676;5.808;2024-03-29T13:54:49;17.10;52.60
62583;DHT22;48641;51.676;5.808;2024-03-29T13:57:19;17.20;51.70
62583;DHT22;48641;51.676;5.808;2024-03-29T13:59:44;17.20;51.60
62583;DHT22;48641;51.676;5.808;2024-03-29T14:02:11;17.20;51.70
62583;DHT22;48641;51.676;5.808;2024-03-29T14:04:38;17.20;51.50
62583;DHT22;48641;51.676;5.808;2024-03-29T14:07:03;17.20;51.50
62583;DHT22;48641;51.676;5.808;2024-03-29T14:09:34;17.20;51.50
62583;DHT22;48641;51.676;5.808;2024-03-29T14:12:00;17.20;51.50
62583;DHT22;48641;51.676;5.808;2024-03-29T14:14:25;17.20;51.40
62583;DHT22;48641;51.676;5.808;2024-03-29T14:16:51;17.20;51.30
62583;DHT22;48641;51.676;5.808;2024-03-29T14:19:16;17.30;51.30
62583;DHT22;48641;51.676;5.808;2024-03-29T14:21:42;17.30;51.50
62583;DHT22;48641;51.676;5.808;2024-03-29T14:24:07;17.30;51.50
62583;DHT22;48641;51.676;5.808;2024-03-29T14:26:33;17.30;51.50
62583;DHT22;48641;51.676;5.808;2024-03-29T14:28:59;17.30;51.50
62583;DHT22;48641;51.676;5.808;2024-03-29T14:31:25;17.30;51.50
62583;DHT22;48641;51.676;5.808;2024-03-29T14:33:50;17.30;51.50
62583;DHT22;48641;51.676;5.808;2024-03-29T14:36:16;17.40;51.50
62583;DHT22;48641;51.676;5.808;2024-03-29T14:38:43;17.40;51.40
62583;DHT22;48641;51.676;5.808;2024-03-29T14:41:09;17.40;51.50
62583;DHT22;48641;51.676;5.808;2024-03-29T14:43:35;17.40;51.40
62583;DHT22;48641;51.676;5.808;2024-03-29T14:46:01;17.40;51.40
62583;DHT22;48641;51.676;5.808;2024-03-29T14:48:26;17.40;51.40
62583;DHT22;48641;51.676;5.808;2024-03-29T14:50:52;17.40;51.40
62583;DHT22;48641;51.676;5.808;2024-03-29T14:53:20;17.40;51.30
62583;DHT22;48641;51.676;5.808;2024-03-29T14:55:45;17.50;51.40
62583;DHT22;48641;51.676;5.808;2024-03-29T14:58:11;17.50;51.40
62583;DHT22;48641;51.676;5.808;2024-03-29T15:00:36;17.50;51.30
62583;DHT22;48641;51.676;5.808;2024-03-29T15:03:02;17.60;51.40
62583;DHT22;48641;51.676;5.808;2024-03-29T15:05:28;17.60;51.30
62583;DHT22;48641;51.676;5.808;2024-03-29T15:07:54;17.60;51.30
62583;DHT22;48641;51.676;5.808;2024-03-29T15:10:19;17.70;51.30
62583;DHT22;48641;51.676;5.808;2024-03-29T15:12:47;17.70;51.20
62583;DHT22;48641;51.676;5.808;2024-03-29T15:15:12;17.70;51.10
62583;DHT22;48641;51.676;5.808;2024-03-29T15:17:38;17.70;51.10
62583;DHT22;48641;51.676;5.808;2024-03-29T15:20:05;17.70;51.20
62583;DHT22;48641;51.676;5.808;2024-03-29T15:22:32;17.80;51.20
62583;DHT22;48641;51.676;5.808;2024-03-29T15:24:59;17.80;51.10
62583;DHT22;48641;51.676;5.808;2024-03-29T15:27:26;17.80;51.10
62583;DHT22;48641;51.676;5.808;2024-03-29T15:30:11;17.80;51.10
62583;DHT22;48641;51.676;5.808;2024-03-29T15:32:37;17.80;51.20